BAW73N OMDB-EGLL
Flight info
| Callsign | BAW73N |
|---|---|
| Flight time | N/A |
| Altitude | 34000 |
| Route | SENPA N571 ALPOB L768 ULADA Q143 MEDGO N697 HIL A788 HLF/N0493F360 L604 WEJ L677 CVO L617 NOZ L551 ANTAR UN133 KPC DCT FSK/N0487F380 DCT DISOR DCT LONTA UL608 DOLEV DCT BOSNA DCT MARIL DCT OKSIG DCT KUSIB DCT GORPA DCT DOL DCT NIPEL DCT MODSA DCT BABEG DCT LIRSU DCT ARCKY DCT BUB L608 LOGAN |
| Aircraft | B77W/H-SDE1E2E3FGHIJ2J3J4J5M1RWXY/LB1D1 |
Departure
| Time | 2026-05-04 00:11 |
|---|---|
| Airport | Dubai International Airport (OMDB) |
Arrival
| Time | N/A |
|---|---|
| Airport | London Heathrow Airport (EGLL) |
| Time | Latitude | Longitude | Altitude | Speed | Heading |
|---|---|---|---|---|---|
| 2026-05-03 23:48 | 25.25057 | 55.35990 | 19 ft | 0 kts | 211° |
| 2026-05-03 23:54 | 25.25062 | 55.35994 | 19 ft | 2 kts | 207° |
| 2026-05-03 23:54 | 25.25067 | 55.35998 | 19 ft | 0 kts | 186° |
| 2026-05-03 23:55 | 25.25078 | 55.35999 | 19 ft | 2 kts | 189° |
| 2026-05-03 23:55 | 25.25095 | 55.36000 | 23 ft | 2 kts | 205° |
| 2026-05-03 23:55 | 25.25112 | 55.36001 | 24 ft | 2 kts | 266° |
| 2026-05-03 23:55 | 25.25112 | 55.35999 | 22 ft | 2 kts | 264° |
| 2026-05-03 23:56 | 25.25113 | 55.35997 | 22 ft | 2 kts | 286° |
| 2026-05-03 23:56 | 25.25117 | 55.35999 | 23 ft | 2 kts | 345° |
| 2026-05-03 23:56 | 25.25108 | 55.36008 | 23 ft | 0 kts | 196° |
| 2026-05-03 23:56 | 25.25119 | 55.36011 | 24 ft | 4 kts | 187° |
| 2026-05-03 23:57 | 25.25153 | 55.36006 | 24 ft | 5 kts | 140° |
| 2026-05-03 23:57 | 25.25161 | 55.35989 | 24 ft | 0 kts | 123° |
| 2026-05-04 00:00 | 25.25160 | 55.35991 | 22 ft | 2 kts | 122° |
| 2026-05-04 00:00 | 25.25150 | 55.36026 | 22 ft | 7 kts | 95° |
| 2026-05-04 00:01 | 25.25159 | 55.36053 | 22 ft | 3 kts | 51° |
| 2026-05-04 00:01 | 25.25181 | 55.36095 | 22 ft | 8 kts | 76° |
| 2026-05-04 00:01 | 25.25169 | 55.36170 | 20 ft | 13 kts | 110° |
| 2026-05-04 00:01 | 25.25117 | 55.36258 | 22 ft | 15 kts | 124° |
| 2026-05-04 00:02 | 25.25109 | 55.36308 | 23 ft | 3 kts | 75° |
| 2026-05-04 00:02 | 25.25134 | 55.36344 | 23 ft | 7 kts | 42° |
| 2026-05-04 00:02 | 25.25163 | 55.36362 | 21 ft | 5 kts | 30° |
| 2026-05-04 00:02 | 25.25173 | 55.36369 | 21 ft | 2 kts | 30° |
| 2026-05-04 00:03 | 25.25174 | 55.36370 | 21 ft | 0 kts | 30° |
| 2026-05-04 00:05 | 25.25176 | 55.36371 | 19 ft | 1 kts | 30° |
| 2026-05-04 00:05 | 25.25182 | 55.36374 | 23 ft | 1 kts | 30° |
| 2026-05-04 00:06 | 25.25189 | 55.36379 | 23 ft | 2 kts | 30° |
| 2026-05-04 00:06 | 25.25204 | 55.36389 | 21 ft | 18 kts | 30° |
| 2026-05-04 00:06 | 25.25348 | 55.36484 | 22 ft | 24 kts | 30° |
| 2026-05-04 00:06 | 25.25411 | 55.36562 | 23 ft | 5 kts | 91° |
| 2026-05-04 00:07 | 25.25371 | 55.36643 | 24 ft | 31 kts | 121° |
| 2026-05-04 00:07 | 25.25248 | 55.36866 | 22 ft | 33 kts | 120° |
| 2026-05-04 00:07 | 25.25132 | 55.37080 | 23 ft | 32 kts | 122° |
| 2026-05-04 00:07 | 25.25019 | 55.37283 | 22 ft | 33 kts | 122° |
| 2026-05-04 00:08 | 25.24899 | 55.37498 | 24 ft | 32 kts | 121° |
| 2026-05-04 00:08 | 25.24788 | 55.37699 | 23 ft | 30 kts | 121° |
| 2026-05-04 00:08 | 25.24681 | 55.37893 | 24 ft | 29 kts | 122° |
| 2026-05-04 00:08 | 25.24577 | 55.38075 | 26 ft | 27 kts | 122° |
| 2026-05-04 00:09 | 25.24526 | 55.38166 | 25 ft | 7 kts | 120° |
| 2026-05-04 00:09 | 25.24512 | 55.38211 | 27 ft | 5 kts | 95° |
| 2026-05-04 00:09 | 25.24515 | 55.38231 | 26 ft | 1 kts | 73° |
| 2026-05-04 00:09 | 25.24543 | 55.38272 | 26 ft | 10 kts | 44° |
| 2026-05-04 00:10 | 25.24586 | 55.38302 | 26 ft | 8 kts | 30° |
| 2026-05-04 00:10 | 25.24629 | 55.38316 | 26 ft | 5 kts | 357° |
| 2026-05-04 00:10 | 25.24649 | 55.38305 | 28 ft | 2 kts | 317° |
| 2026-05-04 00:10 | 25.24663 | 55.38286 | 27 ft | 11 kts | 304° |
| 2026-05-04 00:11 | 25.24807 | 55.38026 | 23 ft | 68 kts | 301° |
| 2026-05-04 00:11 | 25.25202 | 55.37311 | 22 ft | 157 kts | 301° |
| 2026-05-04 00:11 | 25.25922 | 55.36022 | 245 ft | 221 kts | 301° |
| 2026-05-04 00:11 | 25.26694 | 55.34673 | 1815 ft | 187 kts | 301° |
| 2026-05-04 00:12 | 25.27409 | 55.33427 | 2271 ft | 206 kts | 300° |
| 2026-05-04 00:12 | 25.28149 | 55.32022 | 2611 ft | 216 kts | 299° |
| 2026-05-04 00:12 | 25.28936 | 55.30569 | 3055 ft | 222 kts | 300° |
| 2026-05-04 00:12 | 25.29572 | 55.29018 | 3495 ft | 223 kts | 279° |
| 2026-05-04 00:13 | 25.29729 | 55.27339 | 4099 ft | 221 kts | 275° |
| 2026-05-04 00:13 | 25.29860 | 55.25627 | 4777 ft | 227 kts | 275° |
| 2026-05-04 00:13 | 25.29995 | 55.23872 | 5567 ft | 230 kts | 275° |
| 2026-05-04 00:13 | 25.30137 | 55.22103 | 6348 ft | 232 kts | 275° |
| 2026-05-04 00:14 | 25.30280 | 55.20320 | 7125 ft | 233 kts | 275° |
| 2026-05-04 00:14 | 25.30414 | 55.18528 | 7904 ft | 235 kts | 271° |
| 2026-05-04 00:14 | 25.30301 | 55.16705 | 8552 ft | 243 kts | 266° |
| 2026-05-04 00:14 | 25.30143 | 55.14774 | 8968 ft | 265 kts | 266° |
| 2026-05-04 00:15 | 25.29981 | 55.12696 | 9022 ft | 271 kts | 266° |
| 2026-05-04 00:15 | 25.29824 | 55.10621 | 9207 ft | 272 kts | 266° |
| 2026-05-04 00:15 | 25.29678 | 55.08713 | 9866 ft | 273 kts | 266° |
| 2026-05-04 00:15 | 25.29515 | 55.06600 | 10495 ft | 281 kts | 266° |
| 2026-05-04 00:16 | 25.29348 | 55.04424 | 10903 ft | 296 kts | 266° |
| 2026-05-04 00:16 | 25.29169 | 55.02083 | 11240 ft | 314 kts | 266° |
| 2026-05-04 00:16 | 25.28977 | 54.99606 | 11530 ft | 333 kts | 266° |
| 2026-05-04 00:16 | 25.28774 | 54.96994 | 11786 ft | 352 kts | 266° |
| 2026-05-04 00:17 | 25.28587 | 54.94220 | 12132 ft | 367 kts | 270° |
| 2026-05-04 00:17 | 25.28528 | 54.91368 | 12660 ft | 376 kts | 269° |
| 2026-05-04 00:17 | 25.28425 | 54.88453 | 13232 ft | 383 kts | 269° |
| 2026-05-04 00:17 | 25.28325 | 54.85491 | 13797 ft | 389 kts | 270° |
| 2026-05-04 00:18 | 25.28243 | 54.82475 | 14359 ft | 393 kts | 270° |
| 2026-05-04 00:18 | 25.28161 | 54.79440 | 14946 ft | 396 kts | 270° |
| 2026-05-04 00:18 | 25.28075 | 54.76421 | 15549 ft | 399 kts | 272° |
| 2026-05-04 00:18 | 25.28362 | 54.73378 | 16106 ft | 398 kts | 284° |
| 2026-05-04 00:19 | 25.29077 | 54.70414 | 16690 ft | 400 kts | 287° |
| 2026-05-04 00:19 | 25.29828 | 54.67459 | 17271 ft | 402 kts | 288° |
| 2026-05-04 00:19 | 25.30591 | 54.64472 | 17828 ft | 405 kts | 288° |
| 2026-05-04 00:19 | 25.31348 | 54.61470 | 18347 ft | 407 kts | 287° |
| 2026-05-04 00:20 | 25.32108 | 54.58442 | 18808 ft | 409 kts | 287° |
| 2026-05-04 00:20 | 25.32863 | 54.55447 | 19273 ft | 411 kts | 287° |
| 2026-05-04 00:20 | 25.33633 | 54.52394 | 19721 ft | 414 kts | 287° |
| 2026-05-04 00:20 | 25.34402 | 54.49326 | 20152 ft | 416 kts | 287° |
| 2026-05-04 00:21 | 25.35173 | 54.46227 | 20575 ft | 419 kts | 287° |
| 2026-05-04 00:21 | 25.35954 | 54.43095 | 20986 ft | 422 kts | 287° |
| 2026-05-04 00:21 | 25.36738 | 54.39955 | 21376 ft | 425 kts | 287° |
| 2026-05-04 00:21 | 25.37526 | 54.36796 | 21768 ft | 427 kts | 287° |
| 2026-05-04 00:22 | 25.38316 | 54.33620 | 22140 ft | 430 kts | 287° |
| 2026-05-04 00:22 | 25.39114 | 54.30408 | 22509 ft | 433 kts | 286° |
| 2026-05-04 00:22 | 25.39916 | 54.27182 | 22873 ft | 435 kts | 286° |
| 2026-05-04 00:22 | 25.40719 | 54.23949 | 23225 ft | 438 kts | 286° |
| 2026-05-04 00:23 | 25.41527 | 54.20690 | 23531 ft | 440 kts | 286° |
| 2026-05-04 00:23 | 25.42338 | 54.17415 | 23815 ft | 442 kts | 286° |
| 2026-05-04 00:23 | 25.43152 | 54.14124 | 24110 ft | 444 kts | 286° |
| 2026-05-04 00:23 | 25.43964 | 54.10835 | 24413 ft | 445 kts | 286° |
| 2026-05-04 00:24 | 25.44785 | 54.07512 | 24718 ft | 446 kts | 286° |
| 2026-05-04 00:24 | 25.45603 | 54.04193 | 25014 ft | 448 kts | 285° |
| 2026-05-04 00:24 | 25.46412 | 54.00909 | 25310 ft | 448 kts | 285° |
| 2026-05-04 00:24 | 25.47233 | 53.97575 | 25609 ft | 449 kts | 285° |
| 2026-05-04 00:25 | 25.48055 | 53.94231 | 25922 ft | 451 kts | 285° |
| 2026-05-04 00:25 | 25.48881 | 53.90868 | 26225 ft | 452 kts | 285° |
| 2026-05-04 00:25 | 25.50332 | 53.84950 | 26777 ft | 454 kts | 285° |
| 2026-05-04 00:26 | 25.51159 | 53.81574 | 27109 ft | 455 kts | 285° |
| 2026-05-04 00:26 | 25.51988 | 53.78185 | 27428 ft | 456 kts | 285° |
| 2026-05-04 00:26 | 25.52817 | 53.74794 | 27770 ft | 457 kts | 285° |
| 2026-05-04 00:26 | 25.53648 | 53.71389 | 28095 ft | 459 kts | 285° |
| 2026-05-04 00:27 | 25.54469 | 53.68022 | 28438 ft | 460 kts | 285° |
| 2026-05-04 00:27 | 25.55303 | 53.64596 | 28811 ft | 462 kts | 285° |
| 2026-05-04 00:27 | 25.56142 | 53.61150 | 29186 ft | 463 kts | 285° |
| 2026-05-04 00:27 | 25.56979 | 53.57705 | 29564 ft | 464 kts | 285° |
| 2026-05-04 00:28 | 25.57819 | 53.54242 | 29938 ft | 465 kts | 285° |
| 2026-05-04 00:28 | 25.58661 | 53.50772 | 30261 ft | 467 kts | 284° |
| 2026-05-04 00:28 | 25.59503 | 53.47295 | 30639 ft | 467 kts | 284° |
| 2026-05-04 00:28 | 25.60345 | 53.43817 | 31178 ft | 465 kts | 284° |
| 2026-05-04 00:29 | 25.61175 | 53.40381 | 31720 ft | 463 kts | 284° |
| 2026-05-04 00:29 | 25.62005 | 53.36941 | 32290 ft | 461 kts | 284° |
| 2026-05-04 00:29 | 25.62834 | 53.33505 | 32864 ft | 459 kts | 283° |
| 2026-05-04 00:29 | 25.63654 | 53.30101 | 33443 ft | 457 kts | 283° |
| 2026-05-04 00:30 | 25.64462 | 53.26745 | 33770 ft | 456 kts | 283° |
| 2026-05-04 00:30 | 25.65279 | 53.23347 | 33780 ft | 454 kts | 283° |
| 2026-05-04 00:30 | 25.66894 | 53.16612 | 33779 ft | 451 kts | 283° |
| 2026-05-04 00:31 | 25.68500 | 53.09907 | 33783 ft | 449 kts | 283° |
| 2026-05-04 00:31 | 25.70102 | 53.03203 | 33784 ft | 449 kts | 284° |
| 2026-05-04 00:32 | 25.72403 | 52.96737 | 33800 ft | 453 kts | 291° |
| 2026-05-04 00:32 | 25.74920 | 52.90374 | 33803 ft | 453 kts | 291° |
| 2026-05-04 00:33 | 25.78721 | 52.80761 | 33804 ft | 454 kts | 291° |
| 2026-05-04 00:34 | 25.81260 | 52.74323 | 33801 ft | 454 kts | 291° |
| 2026-05-04 00:34 | 25.83790 | 52.67902 | 33799 ft | 455 kts | 291° |
| 2026-05-04 00:35 | 25.86326 | 52.61452 | 33802 ft | 455 kts | 291° |
| 2026-05-04 00:35 | 25.88840 | 52.55050 | 33803 ft | 455 kts | 291° |
| 2026-05-04 00:36 | 25.91372 | 52.48592 | 33800 ft | 456 kts | 290° |
| 2026-05-04 00:36 | 25.93895 | 52.42148 | 33812 ft | 455 kts | 290° |
| 2026-05-04 00:37 | 25.96414 | 52.35702 | 33816 ft | 455 kts | 290° |
| 2026-05-04 00:37 | 25.98933 | 52.29247 | 33816 ft | 455 kts | 290° |
| 2026-05-04 00:38 | 26.01456 | 52.22773 | 33816 ft | 456 kts | 290° |
| 2026-05-04 00:38 | 26.03953 | 52.16353 | 33819 ft | 456 kts | 290° |
| 2026-05-04 00:39 | 26.06485 | 52.09834 | 33819 ft | 456 kts | 290° |
| 2026-05-04 00:39 | 26.08976 | 52.03413 | 33808 ft | 454 kts | 290° |
| 2026-05-04 00:40 | 26.11486 | 51.96929 | 33811 ft | 455 kts | 290° |
| 2026-05-04 00:40 | 26.13987 | 51.90458 | 33810 ft | 455 kts | 290° |
| 2026-05-04 00:41 | 26.16486 | 51.83983 | 33810 ft | 455 kts | 290° |
| 2026-05-04 00:41 | 26.18971 | 51.77535 | 33810 ft | 455 kts | 290° |
| 2026-05-04 00:42 | 26.21469 | 51.71043 | 33824 ft | 454 kts | 290° |
| 2026-05-04 00:42 | 26.23955 | 51.64569 | 33823 ft | 453 kts | 290° |
| 2026-05-04 00:43 | 26.26414 | 51.58159 | 33825 ft | 453 kts | 290° |
| 2026-05-04 00:43 | 26.28891 | 51.51690 | 33828 ft | 454 kts | 290° |
| 2026-05-04 00:44 | 26.31367 | 51.45214 | 33826 ft | 454 kts | 290° |
| 2026-05-04 00:44 | 26.33840 | 51.38734 | 33831 ft | 454 kts | 290° |
| 2026-05-04 00:45 | 26.36304 | 51.32269 | 33823 ft | 453 kts | 289° |
| 2026-05-04 00:45 | 26.38766 | 51.25795 | 33824 ft | 453 kts | 289° |
| 2026-05-04 00:46 | 26.41224 | 51.19325 | 33827 ft | 453 kts | 289° |
| 2026-05-04 00:46 | 26.43662 | 51.12897 | 33828 ft | 453 kts | 289° |
| 2026-05-04 00:47 | 26.46114 | 51.06420 | 33828 ft | 453 kts | 289° |
| 2026-05-04 00:47 | 26.48559 | 50.99953 | 33825 ft | 451 kts | 289° |
| 2026-05-04 00:48 | 26.50991 | 50.93507 | 33826 ft | 450 kts | 289° |
| 2026-05-04 00:48 | 26.53425 | 50.87048 | 33824 ft | 450 kts | 289° |
| 2026-05-04 00:49 | 26.55856 | 50.80587 | 33823 ft | 451 kts | 289° |
| 2026-05-04 00:49 | 26.58287 | 50.74115 | 33825 ft | 451 kts | 289° |
| 2026-05-04 00:50 | 26.60703 | 50.67670 | 33828 ft | 450 kts | 289° |
| 2026-05-04 00:50 | 26.63111 | 50.61236 | 33828 ft | 450 kts | 289° |
| 2026-05-04 00:51 | 26.65529 | 50.54769 | 33830 ft | 450 kts | 289° |
| 2026-05-04 00:51 | 26.67942 | 50.48302 | 33829 ft | 450 kts | 289° |
| 2026-05-04 00:52 | 26.70352 | 50.41833 | 33836 ft | 450 kts | 289° |
| 2026-05-04 00:52 | 26.72754 | 50.35375 | 33843 ft | 449 kts | 289° |
| 2026-05-04 00:53 | 26.74994 | 50.28858 | 33843 ft | 446 kts | 281° |
| 2026-05-04 00:53 | 26.75793 | 50.22088 | 33844 ft | 440 kts | 269° |
| 2026-05-04 00:54 | 26.75871 | 50.15230 | 33842 ft | 441 kts | 269° |
| 2026-05-04 00:54 | 26.75936 | 50.08378 | 33841 ft | 441 kts | 269° |
| 2026-05-04 00:55 | 26.76000 | 50.01509 | 33834 ft | 441 kts | 269° |
| 2026-05-04 00:55 | 26.76061 | 49.94642 | 33826 ft | 441 kts | 269° |
| 2026-05-04 00:56 | 26.76115 | 49.87773 | 33821 ft | 441 kts | 269° |
| 2026-05-04 00:56 | 26.76166 | 49.80948 | 33828 ft | 441 kts | 269° |
| 2026-05-04 00:57 | 26.76213 | 49.74098 | 33812 ft | 439 kts | 269° |
| 2026-05-04 00:57 | 26.76257 | 49.67265 | 33810 ft | 439 kts | 269° |
| 2026-05-04 00:58 | 26.76298 | 49.60416 | 33816 ft | 439 kts | 269° |
| 2026-05-04 00:58 | 26.76338 | 49.53571 | 33814 ft | 439 kts | 269° |
| 2026-05-04 00:59 | 26.76376 | 49.46742 | 33817 ft | 440 kts | 269° |
| 2026-05-04 00:59 | 26.76410 | 49.39876 | 33822 ft | 440 kts | 269° |
| 2026-05-04 01:00 | 26.76440 | 49.33058 | 33828 ft | 440 kts | 269° |
| 2026-05-04 01:00 | 26.76465 | 49.26208 | 33831 ft | 440 kts | 269° |
| 2026-05-04 01:01 | 26.76488 | 49.19402 | 33835 ft | 440 kts | 269° |
| 2026-05-04 01:01 | 26.76508 | 49.12557 | 33844 ft | 440 kts | 269° |
| 2026-05-04 01:02 | 26.76524 | 49.05713 | 33848 ft | 439 kts | 268° |
| 2026-05-04 01:02 | 26.76537 | 48.98905 | 33848 ft | 439 kts | 268° |
| 2026-05-04 01:03 | 26.76547 | 48.92072 | 33849 ft | 439 kts | 268° |
| 2026-05-04 01:03 | 26.76553 | 48.85269 | 33854 ft | 439 kts | 268° |
| 2026-05-04 01:04 | 26.76556 | 48.78450 | 33863 ft | 439 kts | 268° |
| 2026-05-04 01:04 | 26.76557 | 48.72710 | 33866 ft | 439 kts | 268° |
| 2026-05-04 01:05 | 26.76434 | 48.65929 | 33868 ft | 438 kts | 267° |
| 2026-05-04 01:05 | 26.76270 | 48.59105 | 33869 ft | 439 kts | 267° |
| 2026-05-04 01:06 | 26.76082 | 48.52271 | 33879 ft | 438 kts | 267° |
| 2026-05-04 01:06 | 26.75901 | 48.45460 | 33880 ft | 438 kts | 267° |
| 2026-05-04 01:07 | 26.75712 | 48.38635 | 33891 ft | 438 kts | 267° |
| 2026-05-04 01:07 | 26.75523 | 48.31812 | 33891 ft | 438 kts | 267° |
| 2026-05-04 01:08 | 26.75334 | 48.25010 | 33896 ft | 438 kts | 266° |